createdAt,value
2018-07-10T00:00:02.342Z,0.00
2018-07-10T00:01:02.420Z,0.00
2018-07-10T00:02:02.439Z,0.00
2018-07-10T00:03:02.500Z,0.00
2018-07-10T00:04:02.542Z,0.00
2018-07-10T00:05:02.593Z,0.00
2018-07-10T00:06:02.677Z,0.00
2018-07-10T00:07:02.690Z,0.00
2018-07-10T00:08:02.746Z,0.00
2018-07-10T00:09:02.794Z,0.00
2018-07-10T00:10:02.846Z,0.00
2018-07-10T00:11:03.183Z,0.00
2018-07-10T00:12:02.944Z,0.00
2018-07-10T00:13:03.015Z,0.00
2018-07-10T00:14:03.043Z,0.00
2018-07-10T00:15:03.094Z,0.00
2018-07-10T00:16:03.146Z,0.00
2018-07-10T00:17:03.222Z,0.00
2018-07-10T00:18:03.269Z,0.00
2018-07-10T00:19:03.299Z,0.00
2018-07-10T00:20:03.349Z,0.00
2018-07-10T00:21:03.399Z,0.00
2018-07-10T00:22:03.448Z,0.00
2018-07-10T00:23:03.520Z,0.00
2018-07-10T00:24:03.550Z,0.00
2018-07-10T00:25:03.600Z,0.00
2018-07-10T00:26:03.648Z,0.00
2018-07-10T00:27:03.701Z,0.00
2018-07-10T00:28:03.774Z,0.00
2018-07-10T00:29:03.801Z,0.00
2018-07-10T00:30:03.850Z,0.00
2018-07-10T00:31:03.899Z,0.00
2018-07-10T00:32:03.949Z,0.00
2018-07-10T00:33:04.022Z,0.00
2018-07-10T00:34:04.052Z,0.00
2018-07-10T00:35:04.100Z,0.00
2018-07-10T00:36:04.153Z,0.00
2018-07-10T00:37:04.201Z,0.00
2018-07-10T00:38:04.280Z,0.00
2018-07-10T00:39:04.302Z,0.00
2018-07-10T00:40:04.351Z,0.00
2018-07-10T00:41:04.409Z,0.00
2018-07-10T00:42:04.452Z,0.00
2018-07-10T00:43:04.528Z,0.00
2018-07-10T00:44:04.588Z,0.00
2018-07-10T00:45:05.153Z,0.00
2018-07-10T00:46:04.653Z,0.00
2018-07-10T00:47:04.703Z,0.00
2018-07-10T00:48:04.755Z,0.00
2018-07-10T00:49:04.827Z,0.00
2018-07-10T00:50:04.853Z,0.00
2018-07-10T00:51:04.904Z,0.00
2018-07-10T00:52:04.960Z,0.00
2018-07-10T00:53:05.044Z,0.00
2018-07-10T00:54:05.053Z,0.00
2018-07-10T00:55:05.110Z,0.00
2018-07-10T00:56:05.159Z,0.00
2018-07-10T00:57:05.206Z,0.00
2018-07-10T00:58:05.277Z,0.00
2018-07-10T00:59:05.331Z,0.00
2018-07-10T01:00:05.358Z,0.00
2018-07-10T01:01:05.405Z,0.00
2018-07-10T01:02:05.460Z,0.00
2018-07-10T01:03:05.507Z,0.00
2018-07-10T01:04:05.584Z,0.00
2018-07-10T01:05:05.606Z,0.00
2018-07-10T01:06:05.658Z,0.00
2018-07-10T01:07:05.708Z,0.00
2018-07-10T01:08:05.756Z,0.00
2018-07-10T01:09:05.843Z,0.00
2018-07-10T01:10:05.855Z,0.00
2018-07-10T01:11:05.906Z,0.00
2018-07-10T01:12:05.968Z,0.00
2018-07-10T01:13:06.010Z,0.00
2018-07-10T01:14:06.087Z,0.00
2018-07-10T01:15:06.111Z,0.00
2018-07-10T01:16:06.155Z,0.00
2018-07-10T01:17:06.206Z,0.00
2018-07-10T01:18:06.255Z,0.00
2018-07-10T01:19:06.332Z,0.00
2018-07-10T01:20:06.386Z,0.00
2018-07-10T01:21:06.407Z,0.00
2018-07-10T01:22:06.457Z,0.00
2018-07-10T01:23:06.507Z,0.00
2018-07-10T01:24:06.556Z,0.00
2018-07-10T01:25:06.632Z,0.00
2018-07-10T01:26:06.659Z,0.00
2018-07-10T01:27:06.709Z,0.00
2018-07-10T01:28:06.757Z,0.00
2018-07-10T01:29:06.806Z,0.00
2018-07-10T01:30:06.882Z,0.00
2018-07-10T01:31:06.911Z,0.00
2018-07-10T01:32:06.958Z,0.00
2018-07-10T01:33:07.014Z,0.00
2018-07-10T01:34:07.061Z,0.00
2018-07-10T01:35:07.142Z,0.00
2018-07-10T01:36:07.161Z,0.00
2018-07-10T01:37:07.213Z,0.00
2018-07-10T01:38:07.262Z,0.00
2018-07-10T01:39:07.307Z,0.00
2018-07-10T01:40:07.387Z,0.00
2018-07-10T01:41:07.406Z,0.00
2018-07-10T01:42:07.457Z,0.00
2018-07-10T01:43:07.509Z,0.00
2018-07-10T01:44:08.165Z,0.00
2018-07-10T01:45:07.629Z,0.00
2018-07-10T01:46:07.658Z,0.00
2018-07-10T01:47:07.730Z,0.00
2018-07-10T01:48:07.761Z,0.00
2018-07-10T01:49:07.848Z,0.00
2018-07-10T01:50:07.856Z,0.00
2018-07-10T01:51:07.930Z,0.00
2018-07-10T01:52:07.985Z,0.00
2018-07-10T01:53:08.010Z,0.00
2018-07-10T01:54:08.057Z,0.00
2018-07-10T01:55:08.107Z,0.00
2018-07-10T01:56:08.157Z,0.00
2018-07-10T01:57:08.231Z,0.00
2018-07-10T01:58:08.256Z,0.00
2018-07-10T01:59:08.306Z,0.00
2018-07-10T02:00:08.359Z,0.00
2018-07-10T02:01:08.409Z,0.00
2018-07-10T02:02:08.479Z,0.00
2018-07-10T02:03:08.508Z,0.00
2018-07-10T02:04:08.558Z,0.00
2018-07-10T02:05:08.607Z,0.00
2018-07-10T02:06:08.655Z,0.00
2018-07-10T02:07:08.730Z,0.00
2018-07-10T02:08:08.784Z,0.00
2018-07-10T02:09:08.806Z,0.00
2018-07-10T02:10:08.858Z,0.00
2018-07-10T02:11:08.912Z,0.00
2018-07-10T02:12:08.957Z,0.00
2018-07-10T02:13:09.044Z,0.00
2018-07-10T02:14:09.076Z,0.00
2018-07-10T02:15:09.107Z,0.00
2018-07-10T02:16:09.161Z,0.00
2018-07-10T02:17:09.204Z,0.00
2018-07-10T02:18:09.291Z,0.00
2018-07-10T02:19:09.309Z,0.00
2018-07-10T02:20:09.355Z,0.00
2018-07-10T02:21:09.405Z,0.00
2018-07-10T02:22:09.458Z,0.00
2018-07-10T02:23:09.538Z,0.00
2018-07-10T02:24:09.553Z,0.00
2018-07-10T02:25:09.606Z,0.00
2018-07-10T02:26:09.673Z,0.00
2018-07-10T02:27:09.703Z,0.00
2018-07-10T02:28:09.777Z,0.00
2018-07-10T02:29:09.828Z,0.00
2018-07-10T02:30:09.856Z,0.00
2018-07-10T02:31:09.904Z,0.00
2018-07-10T02:32:09.955Z,0.00
2018-07-10T02:33:10.007Z,0.00
2018-07-10T02:34:10.078Z,0.00
2018-07-10T02:35:10.104Z,0.00
2018-07-10T02:36:10.152Z,0.00
2018-07-10T02:37:10.201Z,0.00
2018-07-10T02:38:10.263Z,0.00
2018-07-10T02:39:10.325Z,0.00
2018-07-10T02:40:10.356Z,0.00
2018-07-10T02:41:10.404Z,0.00
2018-07-10T02:42:10.451Z,0.00
2018-07-10T02:43:10.500Z,0.00
2018-07-10T02:44:10.590Z,0.00
2018-07-10T02:45:10.601Z,0.00
2018-07-10T02:46:10.650Z,0.00
2018-07-10T02:47:10.700Z,0.00
2018-07-10T02:48:10.754Z,0.00
2018-07-10T02:49:10.825Z,0.00
2018-07-10T02:50:10.850Z,0.00
2018-07-10T02:51:10.922Z,0.00
2018-07-10T02:52:10.949Z,0.00
2018-07-10T02:53:11.007Z,0.00
2018-07-10T02:54:11.049Z,0.00
2018-07-10T02:55:11.100Z,0.00
2018-07-10T02:56:11.172Z,0.00
2018-07-10T02:57:11.202Z,0.00
2018-07-10T02:58:11.250Z,0.00
2018-07-10T02:59:11.297Z,0.00
2018-07-10T03:00:11.348Z,0.00
2018-07-10T03:01:11.420Z,4.00
2018-07-10T03:02:11.447Z,4.00
2018-07-10T03:03:11.497Z,4.00
2018-07-10T03:04:11.548Z,4.00
2018-07-10T03:05:11.601Z,4.00
2018-07-10T03:06:11.681Z,4.00
2018-07-10T03:07:11.699Z,8.00
2018-07-10T03:08:11.748Z,4.00
2018-07-10T03:09:11.797Z,8.00
2018-07-10T03:10:11.850Z,12.00
2018-07-10T03:11:11.919Z,12.00
2018-07-10T03:12:11.976Z,12.00
2018-07-10T03:13:12.004Z,16.00
2018-07-10T03:14:12.047Z,16.00
2018-07-10T03:15:12.100Z,20.00
2018-07-10T03:16:12.146Z,20.00
2018-07-10T03:17:12.220Z,24.00
2018-07-10T03:18:12.248Z,28.00
2018-07-10T03:19:12.295Z,28.00
2018-07-10T03:20:12.349Z,32.00
2018-07-10T03:21:12.394Z,32.00
2018-07-10T03:22:12.479Z,36.00
2018-07-10T03:23:12.494Z,40.00
2018-07-10T03:24:12.545Z,44.00
2018-07-10T03:25:12.596Z,44.00
2018-07-10T03:26:12.644Z,52.00
2018-07-10T03:27:12.718Z,56.00
2018-07-10T03:28:12.767Z,60.00
2018-07-10T03:29:12.794Z,64.00
2018-07-10T03:30:12.844Z,72.00
2018-07-10T03:31:12.898Z,76.00
2018-07-10T03:32:12.945Z,88.00
2018-07-10T03:33:13.018Z,96.00
2018-07-10T03:34:13.043Z,116.00
2018-07-10T03:35:13.098Z,132.00
2018-07-10T03:36:13.142Z,152.00
2018-07-10T03:37:13.218Z,176.00
2018-07-10T03:38:13.272Z,204.00
2018-07-10T03:39:13.292Z,232.00
2018-07-10T03:40:13.346Z,260.00
2018-07-10T03:41:13.391Z,284.00
2018-07-10T03:42:13.467Z,308.00
2018-07-10T03:43:13.517Z,332.00
2018-07-10T03:44:13.543Z,352.00
2018-07-10T03:45:13.596Z,368.00
2018-07-10T03:46:13.641Z,388.00
2018-07-10T03:47:13.691Z,400.00
2018-07-10T03:48:13.771Z,424.00
2018-07-10T03:49:13.791Z,444.00
2018-07-10T03:50:13.840Z,464.00
2018-07-10T03:51:13.891Z,484.00
2018-07-10T03:52:13.941Z,512.00
2018-07-10T03:53:14.015Z,540.00
2018-07-10T03:54:14.041Z,572.00
2018-07-10T03:55:14.097Z,612.00
2018-07-10T03:56:14.140Z,660.00
2018-07-10T03:57:14.190Z,716.00
2018-07-10T03:58:14.335Z,776.00
2018-07-10T03:59:14.290Z,836.00
2018-07-10T04:00:14.342Z,900.00
2018-07-10T04:01:14.391Z,964.00
2018-07-10T04:02:14.444Z,1036.00
2018-07-10T04:03:14.514Z,1120.00
2018-07-10T04:04:14.569Z,1228.00
2018-07-10T04:05:14.591Z,1360.00
2018-07-10T04:06:14.638Z,1512.00
2018-07-10T04:07:14.691Z,1696.00
2018-07-10T04:08:14.740Z,1896.00
2018-07-10T04:09:14.825Z,2100.00
2018-07-10T04:10:14.840Z,2276.00
2018-07-10T04:11:14.896Z,2404.00
2018-07-10T04:12:14.939Z,2480.00
2018-07-10T04:13:14.990Z,2504.00
2018-07-10T04:14:15.062Z,2476.00
2018-07-10T04:15:15.092Z,2408.00
2018-07-10T04:16:15.139Z,2308.00
2018-07-10T04:17:15.189Z,2208.00
2018-07-10T04:18:15.262Z,2108.00
2018-07-10T04:19:15.291Z,2024.00
2018-07-10T04:20:15.361Z,1964.00
2018-07-10T04:21:15.388Z,1944.00
2018-07-10T04:22:15.438Z,1960.00
2018-07-10T04:23:15.519Z,2024.00
2018-07-10T04:24:15.543Z,2108.00
2018-07-10T04:25:15.620Z,2216.00
2018-07-10T04:26:15.639Z,2356.00
2018-07-10T04:27:15.688Z,2496.00
2018-07-10T04:28:15.742Z,2624.00
2018-07-10T04:29:15.787Z,2728.00
2018-07-10T04:30:15.866Z,2808.00
2018-07-10T04:31:15.891Z,2864.00
2018-07-10T04:32:15.938Z,2908.00
2018-07-10T04:33:15.987Z,2956.00
2018-07-10T04:34:16.072Z,3012.00
2018-07-10T04:35:16.088Z,3092.00
2018-07-10T04:36:16.144Z,3192.00
2018-07-10T04:37:16.190Z,3316.00
2018-07-10T04:38:16.239Z,3452.00
2018-07-10T04:39:16.310Z,3596.00
2018-07-10T04:40:16.338Z,3740.00
2018-07-10T04:41:16.412Z,3896.00
2018-07-10T04:42:16.479Z,4068.00
2018-07-10T04:43:16.490Z,4268.00
2018-07-10T04:44:16.542Z,4480.00
2018-07-10T04:45:16.612Z,4696.00
2018-07-10T04:46:16.639Z,4904.00
2018-07-10T04:47:16.697Z,5072.00
2018-07-10T04:48:16.739Z,5220.00
2018-07-10T04:49:16.837Z,5348.00
2018-07-10T04:50:16.868Z,5456.00
2018-07-10T04:51:16.889Z,5552.00
2018-07-10T04:52:16.965Z,5620.00
2018-07-10T04:53:16.989Z,5668.00
2018-07-10T04:54:17.039Z,5700.00
2018-07-10T04:55:17.114Z,5680.00
2018-07-10T04:56:17.139Z,5652.00
2018-07-10T04:57:17.190Z,5640.00
2018-07-10T04:58:17.263Z,5636.00
2018-07-10T04:59:17.292Z,5648.00
2018-07-10T05:00:17.340Z,5700.00
2018-07-10T05:01:17.434Z,5812.00
2018-07-10T05:02:17.441Z,5948.00
2018-07-10T05:03:17.516Z,6108.00
2018-07-10T05:04:17.540Z,6188.00
2018-07-10T05:05:17.592Z,6172.00
2018-07-10T05:06:17.641Z,6112.00
2018-07-10T05:07:17.745Z,6068.00
2018-07-10T05:08:17.771Z,6044.00
2018-07-10T05:09:17.790Z,6040.00
2018-07-10T05:10:17.847Z,6064.00
2018-07-10T05:11:17.895Z,6124.00
2018-07-10T05:12:17.943Z,6212.00
2018-07-10T05:13:18.017Z,6288.00
2018-07-10T05:14:18.043Z,6360.00
2018-07-10T05:15:18.094Z,6480.00
2018-07-10T05:16:18.147Z,6652.00
2018-07-10T05:17:18.194Z,6888.00
2018-07-10T05:18:18.273Z,7152.00
2018-07-10T05:19:18.297Z,7452.00
2018-07-10T05:20:18.345Z,7744.00
2018-07-10T05:21:18.428Z,7988.00
2018-07-10T05:22:18.447Z,8104.00
2018-07-10T05:23:18.520Z,8180.00
2018-07-10T05:24:18.547Z,8268.00
2018-07-10T05:25:18.595Z,8372.00
2018-07-10T05:26:18.649Z,8560.00
2018-07-10T05:27:18.724Z,8784.00
2018-07-10T05:28:18.751Z,9004.00
2018-07-10T05:29:18.819Z,9176.00
2018-07-10T05:30:18.850Z,9220.00
2018-07-10T05:31:18.905Z,9080.00
2018-07-10T05:32:18.974Z,8892.00
2018-07-10T05:33:19.721Z,8780.00
2018-07-10T05:34:19.076Z,8744.00
2018-07-10T05:35:19.105Z,8636.00
2018-07-10T05:36:19.154Z,8476.00
2018-07-10T05:37:19.268Z,8424.00
2018-07-10T05:38:19.254Z,8484.00
2018-07-10T05:39:19.328Z,8636.00
2018-07-10T05:40:19.354Z,8864.00
2018-07-10T05:41:19.406Z,9140.00
2018-07-10T05:42:19.457Z,9400.00
2018-07-10T05:43:19.510Z,9572.00
2018-07-10T05:44:19.588Z,9652.00
2018-07-10T05:45:19.608Z,9636.00
2018-07-10T05:46:19.696Z,9548.00
2018-07-10T05:47:19.710Z,9412.00
2018-07-10T05:48:19.760Z,9308.00
2018-07-10T05:49:19.833Z,9280.00
2018-07-10T05:50:19.865Z,9356.00
2018-07-10T05:51:19.910Z,9556.00
2018-07-10T05:52:19.964Z,9844.00
2018-07-10T05:53:20.014Z,10220.00
2018-07-10T05:54:20.093Z,10612.00
2018-07-10T05:55:20.117Z,11000.00
2018-07-10T05:56:20.165Z,11312.00
2018-07-10T05:57:20.214Z,11584.00
2018-07-10T05:58:20.320Z,11828.00
2018-07-10T05:59:20.346Z,12120.00
2018-07-10T06:00:20.370Z,12440.00
2018-07-10T06:01:20.417Z,12732.00
2018-07-10T06:02:20.468Z,12904.00
2018-07-10T06:03:20.522Z,13008.00
2018-07-10T06:04:20.593Z,13192.00
2018-07-10T06:05:20.622Z,13408.00
2018-07-10T06:06:20.671Z,13544.00
2018-07-10T06:07:20.722Z,13388.00
2018-07-10T06:08:20.771Z,13208.00
2018-07-10T06:09:20.845Z,13180.00
2018-07-10T06:10:20.887Z,13424.00
2018-07-10T06:11:20.928Z,13988.00
2018-07-10T06:12:20.976Z,14828.00
2018-07-10T06:13:21.026Z,15756.00
2018-07-10T06:14:21.099Z,16660.00
2018-07-10T06:15:21.127Z,17728.00
2018-07-10T06:16:21.216Z,18432.00
2018-07-10T06:17:21.228Z,18464.00
2018-07-10T06:18:21.279Z,17792.00
2018-07-10T06:19:21.330Z,16788.00
2018-07-10T06:20:21.410Z,16744.00
2018-07-10T06:21:21.433Z,17180.00
2018-07-10T06:22:21.512Z,17132.00
2018-07-10T06:23:21.534Z,15704.00
2018-07-10T06:24:21.585Z,14012.00
2018-07-10T06:25:21.665Z,14196.00
2018-07-10T06:26:21.687Z,15428.00
2018-07-10T06:27:21.745Z,15516.00
2018-07-10T06:28:21.791Z,15316.00
2018-07-10T06:29:21.842Z,15804.00
2018-07-10T06:30:21.938Z,17296.00
2018-07-10T06:31:21.944Z,18496.00
2018-07-10T06:32:22.017Z,18720.00
2018-07-10T06:33:22.043Z,18240.00
2018-07-10T06:34:22.098Z,17436.00
2018-07-10T06:35:22.156Z,17056.00
2018-07-10T06:36:22.199Z,16716.00
2018-07-10T06:37:22.272Z,16496.00
2018-07-10T06:38:22.302Z,16116.00
2018-07-10T06:39:22.352Z,15820.00
2018-07-10T06:40:22.403Z,15752.00
2018-07-10T06:41:22.458Z,16368.00
2018-07-10T06:42:22.543Z,17148.00
2018-07-10T06:43:22.562Z,18472.00
2018-07-10T06:44:23.442Z,19552.00
2018-07-10T06:45:22.660Z,21280.00
2018-07-10T06:46:22.710Z,22304.00
2018-07-10T06:47:22.787Z,23008.00
2018-07-10T06:48:22.815Z,23200.00
2018-07-10T06:49:22.868Z,22752.00
2018-07-10T06:50:22.917Z,22688.00
2018-07-10T06:51:22.969Z,22816.00
2018-07-10T06:52:23.144Z,23488.00
2018-07-10T06:53:23.389Z,24288.00
2018-07-10T06:54:23.125Z,25344.00
2018-07-10T06:55:23.177Z,25920.00
2018-07-10T06:56:23.229Z,26144.00
2018-07-10T06:57:23.307Z,25600.00
2018-07-10T06:58:23.333Z,25088.00
2018-07-10T06:59:23.409Z,24640.00
2018-07-10T07:00:23.438Z,24704.00
2018-07-10T07:01:23.492Z,24960.00
2018-07-10T07:02:23.568Z,24896.00
2018-07-10T07:03:23.603Z,24800.00
2018-07-10T07:04:34.295Z,24608.00
2018-07-10T07:05:23.702Z,24416.00
2018-07-10T07:06:23.756Z,24224.00
2018-07-10T07:07:23.808Z,23552.00
2018-07-10T07:08:23.860Z,23136.00
2018-07-10T07:09:23.912Z,23200.00
2018-07-10T07:10:23.990Z,23104.00
2018-07-10T07:11:24.021Z,23904.00
2018-07-10T07:12:24.071Z,24576.00
2018-07-10T07:13:24.122Z,25056.00
2018-07-10T07:14:24.187Z,25184.00
2018-07-10T07:15:24.253Z,25376.00
2018-07-10T07:16:24.285Z,25280.00
2018-07-10T07:17:24.334Z,25408.00
2018-07-10T07:18:24.391Z,25248.00
2018-07-10T07:19:24.443Z,25120.00
2018-07-10T07:20:24.788Z,27008.00
2018-07-10T07:21:24.552Z,31136.00
2018-07-10T07:22:24.600Z,35072.00
2018-07-10T07:23:24.658Z,31872.00
2018-07-10T07:24:24.712Z,33312.00
2018-07-10T07:25:24.787Z,34688.00
2018-07-10T07:26:24.819Z,33888.00
2018-07-10T07:27:24.867Z,34176.00
2018-07-10T07:28:24.922Z,32384.00
2018-07-10T07:29:25.044Z,30688.00
2018-07-10T07:30:25.071Z,26048.00
2018-07-10T07:31:25.081Z,25696.00
2018-07-10T07:32:25.141Z,25376.00
2018-07-10T07:33:25.189Z,26656.00
2018-07-10T07:34:25.244Z,29152.00
2018-07-10T07:35:25.343Z,29248.00
2018-07-10T07:36:25.353Z,30656.00
2018-07-10T07:37:25.403Z,28352.00
2018-07-10T07:38:25.459Z,23840.00
2018-07-10T07:39:25.514Z,20448.00
2018-07-10T07:40:25.590Z,18272.00
2018-07-10T07:41:25.615Z,17568.00
2018-07-10T07:42:25.672Z,18112.00
2018-07-10T07:43:25.750Z,19008.00
2018-07-10T07:44:25.876Z,19680.00
2018-07-10T07:45:25.828Z,19904.00
2018-07-10T07:46:25.884Z,20160.00
2018-07-10T07:47:25.941Z,20160.00
2018-07-10T07:48:26.022Z,20288.00
2018-07-10T07:49:26.042Z,20768.00
2018-07-10T07:50:26.097Z,21056.00
2018-07-10T07:51:26.148Z,21408.00
2018-07-10T07:52:26.207Z,22624.00
2018-07-10T07:53:26.281Z,24928.00
2018-07-10T07:54:26.338Z,28608.00
2018-07-10T07:55:26.369Z,32096.00
2018-07-10T07:56:26.414Z,34080.00
2018-07-10T07:57:26.469Z,40704.00
2018-07-10T07:58:26.526Z,32128.00
2018-07-10T07:59:26.597Z,31744.00
2018-07-10T08:00:26.664Z,31712.00
2018-07-10T08:01:26.679Z,33216.00
2018-07-10T08:02:26.736Z,41280.00
2018-07-10T08:03:26.818Z,43872.00
2018-07-10T08:04:26.863Z,36096.00
2018-07-10T08:05:26.929Z,37632.00
2018-07-10T08:06:26.955Z,46848.00
2018-07-10T08:07:27.002Z,47552.00
2018-07-10T08:08:27.056Z,43616.00
2018-07-10T08:09:27.108Z,52096.00
2018-07-10T08:10:27.184Z,40096.00
2018-07-10T08:11:27.213Z,36128.00
2018-07-10T08:12:27.267Z,33696.00
2018-07-10T08:13:27.321Z,35648.00
2018-07-10T08:14:27.376Z,55424.00
2018-07-10T08:15:27.453Z,47040.00
2018-07-10T08:16:27.481Z,49152.00
2018-07-10T08:17:27.535Z,42784.00
2018-07-10T08:18:27.586Z,40000.00
2018-07-10T08:19:27.641Z,36288.00
2018-07-10T08:20:27.734Z,39104.00
2018-07-10T08:21:27.750Z,35584.00
2018-07-10T08:22:27.801Z,34912.00
2018-07-10T08:23:27.856Z,37696.00
2018-07-10T08:24:27.938Z,42272.00
2018-07-10T08:25:27.997Z,38752.00
2018-07-10T08:26:28.019Z,31360.00
2018-07-10T08:27:28.080Z,30528.00
2018-07-10T08:28:28.136Z,32256.00
2018-07-10T08:29:28.180Z,31776.00
2018-07-10T08:30:28.265Z,28544.00
2018-07-10T08:31:28.289Z,25984.00
2018-07-10T08:32:28.342Z,22624.00
2018-07-10T08:33:28.437Z,20928.00
2018-07-10T08:34:28.448Z,19744.00
2018-07-10T08:35:28.535Z,18688.00
2018-07-10T08:36:28.581Z,17952.00
2018-07-10T08:37:28.613Z,17824.00
2018-07-10T08:38:28.665Z,18528.00
2018-07-10T08:39:28.720Z,19968.00
2018-07-10T08:40:28.771Z,22464.00
2018-07-10T08:41:28.849Z,25472.00
2018-07-10T08:42:28.880Z,28192.00
2018-07-10T08:43:28.934Z,30240.00
2018-07-10T08:44:28.992Z,31744.00
2018-07-10T08:45:29.038Z,33504.00
2018-07-10T08:46:29.122Z,31520.00
2018-07-10T08:47:29.155Z,29152.00
2018-07-10T08:48:29.206Z,28256.00
2018-07-10T08:49:29.252Z,28160.00
2018-07-10T08:50:29.309Z,28608.00
2018-07-10T08:51:29.393Z,29504.00
2018-07-10T08:52:29.419Z,30592.00
2018-07-10T08:53:29.466Z,32128.00
2018-07-10T08:54:29.524Z,33888.00
2018-07-10T08:55:29.574Z,35840.00
2018-07-10T08:56:29.655Z,37760.00
2018-07-10T08:57:29.679Z,39456.00
2018-07-10T08:58:29.733Z,41824.00
2018-07-10T08:59:29.789Z,39456.00
2018-07-10T09:00:30.496Z,41568.00
2018-07-10T09:01:29.929Z,40416.00
2018-07-10T09:02:29.977Z,47808.00
2018-07-10T09:03:30.006Z,44320.00
2018-07-10T09:04:30.056Z,46496.00
2018-07-10T09:05:30.112Z,53984.00
2018-07-10T09:06:30.166Z,60928.00
2018-07-10T09:07:30.241Z,68736.00
2018-07-10T09:08:30.275Z,45216.00
2018-07-10T09:09:30.323Z,48192.00
2018-07-10T09:10:30.376Z,44000.00
2018-07-10T09:11:30.431Z,48480.00
2018-07-10T09:12:30.513Z,45472.00
2018-07-10T09:13:30.560Z,41440.00
2018-07-10T09:14:30.594Z,37376.00
2018-07-10T09:15:30.649Z,38368.00
2018-07-10T09:16:30.709Z,42176.00
2018-07-10T09:17:30.780Z,31744.00
2018-07-10T09:18:30.833Z,30624.00
2018-07-10T09:19:30.870Z,31520.00
2018-07-10T09:20:30.924Z,32960.00
2018-07-10T09:21:30.977Z,42464.00
2018-07-10T09:22:31.052Z,53664.00
2018-07-10T09:23:31.085Z,37856.00
2018-07-10T09:24:31.159Z,40576.00
2018-07-10T09:25:31.193Z,55072.00
2018-07-10T09:26:31.247Z,37536.00
2018-07-10T09:27:31.298Z,34176.00
2018-07-10T09:28:31.376Z,31872.00
2018-07-10T09:29:31.406Z,28800.00
2018-07-10T09:30:31.486Z,25504.00
2018-07-10T09:31:31.514Z,24224.00
2018-07-10T09:32:32.007Z,22016.00
2018-07-10T09:33:31.709Z,21088.00
2018-07-10T09:34:31.677Z,20480.00
2018-07-10T09:35:31.733Z,20064.00
2018-07-10T09:36:31.786Z,20352.00
2018-07-10T09:37:31.840Z,20704.00
2018-07-10T09:38:31.929Z,20736.00
2018-07-10T09:39:31.947Z,20576.00
2018-07-10T09:40:32.531Z,19488.00
2018-07-10T09:41:32.053Z,19360.00
2018-07-10T09:42:32.106Z,19872.00
2018-07-10T09:43:32.189Z,20992.00
2018-07-10T09:44:32.214Z,23008.00
2018-07-10T09:45:32.267Z,24960.00
2018-07-10T09:46:32.322Z,26560.00
2018-07-10T09:47:32.376Z,27808.00
2018-07-10T09:48:32.457Z,28384.00
2018-07-10T09:49:32.479Z,27584.00
2018-07-10T09:50:32.533Z,26240.00
2018-07-10T09:51:32.589Z,25184.00
2018-07-10T09:52:32.640Z,24576.00
2018-07-10T09:53:32.724Z,24704.00
2018-07-10T09:54:32.744Z,24576.00
2018-07-10T09:55:32.799Z,26080.00
2018-07-10T09:56:32.886Z,29120.00
2018-07-10T09:57:32.907Z,33984.00
2018-07-10T09:58:32.963Z,36352.00
2018-07-10T09:59:33.044Z,37248.00
2018-07-10T10:00:33.066Z,37824.00
2018-07-10T10:01:33.117Z,34144.00
2018-07-10T10:02:33.177Z,32928.00
2018-07-10T10:03:33.235Z,33056.00
2018-07-10T10:04:33.312Z,33088.00
2018-07-10T10:05:33.358Z,36320.00
2018-07-10T10:06:33.388Z,46784.00
2018-07-10T10:07:33.440Z,37280.00
2018-07-10T10:08:33.496Z,34272.00
2018-07-10T10:09:33.585Z,31744.00
2018-07-10T10:10:33.600Z,30048.00
2018-07-10T10:11:33.654Z,30208.00
2018-07-10T10:12:33.709Z,30272.00
2018-07-10T10:13:33.760Z,31520.00
2018-07-10T10:14:33.846Z,32576.00
2018-07-10T10:15:33.870Z,33632.00
2018-07-10T10:16:33.924Z,33984.00
2018-07-10T10:17:33.975Z,34432.00
2018-07-10T10:18:34.033Z,36640.00
2018-07-10T10:19:34.105Z,37760.00
2018-07-10T10:20:34.137Z,36128.00
2018-07-10T10:21:34.213Z,32352.00
2018-07-10T10:22:34.247Z,29696.00
2018-07-10T10:23:34.300Z,29440.00
2018-07-10T10:24:34.353Z,30400.00
2018-07-10T10:25:34.405Z,32576.00
2018-07-10T10:26:34.488Z,36672.00
2018-07-10T10:27:34.514Z,41280.00
2018-07-10T10:28:34.569Z,46080.00
2018-07-10T10:29:34.622Z,46656.00
2018-07-10T10:30:34.676Z,49440.00
2018-07-10T10:31:34.770Z,51072.00
2018-07-10T10:32:34.782Z,56416.00
2018-07-10T10:33:34.839Z,62912.00
2018-07-10T10:34:34.888Z,50112.00
2018-07-10T10:35:35.000Z,44000.00
2018-07-10T10:36:35.028Z,42720.00
2018-07-10T10:37:35.051Z,40832.00
2018-07-10T10:38:35.105Z,37824.00
2018-07-10T10:39:35.162Z,32704.00
2018-07-10T10:40:35.212Z,30208.00
2018-07-10T10:41:35.370Z,29088.00
2018-07-10T10:42:35.322Z,28128.00
2018-07-10T10:43:35.375Z,28448.00
2018-07-10T10:44:35.434Z,30592.00
2018-07-10T10:45:35.481Z,31872.00
2018-07-10T10:46:35.560Z,31168.00
2018-07-10T10:47:35.625Z,31072.00
2018-07-10T10:48:35.644Z,34144.00
2018-07-10T10:49:35.701Z,38976.00
2018-07-10T10:50:35.751Z,44480.00
2018-07-10T10:51:35.805Z,47136.00
2018-07-10T10:52:35.882Z,43968.00
2018-07-10T10:53:35.936Z,40864.00
2018-07-10T10:54:35.967Z,37952.00
2018-07-10T10:55:36.040Z,37440.00
2018-07-10T10:56:36.076Z,36416.00
2018-07-10T10:57:36.129Z,36128.00
2018-07-10T10:58:36.209Z,33856.00
2018-07-10T10:59:36.254Z,32416.00
2018-07-10T11:00:36.291Z,32640.00
2018-07-10T11:01:36.345Z,37376.00
2018-07-10T11:02:36.453Z,46368.00
2018-07-10T11:03:36.479Z,53344.00
2018-07-10T11:04:36.509Z,49696.00
2018-07-10T11:05:36.564Z,43680.00
2018-07-10T11:06:36.616Z,37600.00
2018-07-10T11:07:36.675Z,35904.00
2018-07-10T11:08:36.751Z,35296.00
2018-07-10T11:09:36.780Z,36832.00
2018-07-10T11:10:36.837Z,39488.00
2018-07-10T11:11:36.888Z,39648.00
2018-07-10T11:12:36.942Z,38304.00
2018-07-10T11:13:37.020Z,36448.00
2018-07-10T11:14:37.089Z,33952.00
2018-07-10T11:15:37.106Z,31424.00
2018-07-10T11:16:37.172Z,32288.00
2018-07-10T11:17:37.220Z,30400.00
2018-07-10T11:18:37.273Z,30304.00
2018-07-10T11:19:37.349Z,31200.00
2018-07-10T11:20:37.378Z,31648.00
2018-07-10T11:21:37.433Z,30592.00
2018-07-10T11:22:37.495Z,29312.00
2018-07-10T11:23:37.563Z,29152.00
2018-07-10T11:24:37.595Z,30208.00
2018-07-10T11:25:37.676Z,31456.00
2018-07-10T11:26:37.707Z,32320.00
2018-07-10T11:27:37.757Z,31520.00
2018-07-10T11:28:37.838Z,30464.00
2018-07-10T11:29:37.867Z,30240.00
2018-07-10T11:30:37.942Z,30208.00
2018-07-10T11:31:37.975Z,32832.00
2018-07-10T11:32:38.031Z,36640.00
2018-07-10T11:33:38.082Z,41600.00
2018-07-10T11:34:38.136Z,39488.00
2018-07-10T11:35:38.227Z,40448.00
2018-07-10T11:36:38.248Z,41312.00
2018-07-10T11:37:38.300Z,46624.00
2018-07-10T11:38:38.358Z,51872.00
2018-07-10T11:39:38.410Z,95712.00
2018-07-10T11:40:38.483Z,111360.00
2018-07-10T11:41:38.516Z,98112.00
2018-07-10T11:42:38.570Z,74240.00
2018-07-10T11:43:38.627Z,129408.00
2018-07-10T11:44:38.679Z,108320.00
2018-07-10T11:45:38.812Z,126048.00
2018-07-10T11:46:38.821Z,128960.00
2018-07-10T11:47:38.846Z,143328.00
2018-07-10T11:48:38.900Z,129952.00
2018-07-10T11:49:38.953Z,114240.00
2018-07-10T11:50:39.016Z,95200.00
2018-07-10T11:51:39.096Z,126720.00
2018-07-10T11:52:39.122Z,89376.00
2018-07-10T11:53:39.179Z,96096.00
2018-07-10T11:54:39.234Z,110400.00
2018-07-10T11:55:39.295Z,103712.00
2018-07-10T11:56:39.374Z,92800.00
2018-07-10T11:57:39.403Z,74912.00
2018-07-10T11:58:39.458Z,92576.00
2018-07-10T11:59:39.520Z,91936.00
2018-07-10T12:00:39.590Z,96928.00
2018-07-10T12:01:39.654Z,123968.00
2018-07-10T12:02:39.712Z,119008.00
2018-07-10T12:03:39.748Z,106752.00
2018-07-10T12:04:39.800Z,89440.00
2018-07-10T12:05:39.858Z,59392.00
2018-07-10T12:06:39.954Z,63872.00
2018-07-10T12:07:39.973Z,79648.00
2018-07-10T12:08:40.029Z,67776.00
2018-07-10T12:09:40.109Z,59744.00
2018-07-10T12:10:40.143Z,67328.00
2018-07-10T12:11:40.231Z,96480.00
2018-07-10T12:12:40.263Z,73952.00
2018-07-10T12:13:40.318Z,55296.00